sensor_id;sensor_type;location;lat;lon;timestamp;P1;durP1;ratioP1;P2;durP2;ratioP2
75506;SDS011;64086;43.220;27.878;2023-03-08T00:00:14;31.02;;;26.50;;
75506;SDS011;64086;43.220;27.878;2023-03-08T00:02:41;25.52;;;21.70;;
75506;SDS011;64086;43.220;27.878;2023-03-08T00:05:07;30.63;;;25.50;;
75506;SDS011;64086;43.220;27.878;2023-03-08T00:07:33;32.47;;;25.63;;
75506;SDS011;64086;43.220;27.878;2023-03-08T00:09:59;27.90;;;21.95;;
75506;SDS011;64086;43.220;27.878;2023-03-08T00:12:24;25.08;;;18.30;;
75506;SDS011;64086;43.220;27.878;2023-03-08T00:14:50;23.55;;;14.73;;
75506;SDS011;64086;43.220;27.878;2023-03-08T00:17:16;18.67;;;16.15;;
75506;SDS011;64086;43.220;27.878;2023-03-08T00:19:42;25.92;;;18.67;;
75506;SDS011;64086;43.220;27.878;2023-03-08T00:22:07;24.33;;;19.98;;
75506;SDS011;64086;43.220;27.878;2023-03-08T00:24:33;24.65;;;19.75;;
75506;SDS011;64086;43.220;27.878;2023-03-08T00:26:58;29.45;;;21.58;;
75506;SDS011;64086;43.220;27.878;2023-03-08T00:29:24;28.10;;;22.58;;
75506;SDS011;64086;43.220;27.878;2023-03-08T00:31:49;28.98;;;24.48;;
75506;SDS011;64086;43.220;27.878;2023-03-08T00:34:15;31.13;;;24.55;;
75506;SDS011;64086;43.220;27.878;2023-03-08T00:36:41;27.48;;;22.05;;
75506;SDS011;64086;43.220;27.878;2023-03-08T00:39:06;28.35;;;22.52;;
75506;SDS011;64086;43.220;27.878;2023-03-08T00:41:32;27.63;;;21.92;;
75506;SDS011;64086;43.220;27.878;2023-03-08T00:43:58;29.25;;;22.73;;
75506;SDS011;64086;43.220;27.878;2023-03-08T00:46:23;24.83;;;20.92;;
75506;SDS011;64086;43.220;27.878;2023-03-08T00:48:49;25.38;;;18.50;;
75506;SDS011;64086;43.220;27.878;2023-03-08T00:51:15;28.35;;;20.60;;
75506;SDS011;64086;43.220;27.878;2023-03-08T00:53:42;23.20;;;17.20;;
75506;SDS011;64086;43.220;27.878;2023-03-08T00:56:07;22.23;;;14.60;;
75506;SDS011;64086;43.220;27.878;2023-03-08T00:58:33;17.27;;;13.13;;
75506;SDS011;64086;43.220;27.878;2023-03-08T01:01:01;21.13;;;15.65;;
75506;SDS011;64086;43.220;27.878;2023-03-08T01:03:26;23.05;;;17.10;;
75506;SDS011;64086;43.220;27.878;2023-03-08T01:05:53;20.50;;;14.95;;
75506;SDS011;64086;43.220;27.878;2023-03-08T01:08:19;21.60;;;16.70;;
75506;SDS011;64086;43.220;27.878;2023-03-08T01:10:46;22.13;;;16.92;;
75506;SDS011;64086;43.220;27.878;2023-03-08T01:13:12;22.95;;;19.67;;
75506;SDS011;64086;43.220;27.878;2023-03-08T01:15:38;22.55;;;18.73;;
75506;SDS011;64086;43.220;27.878;2023-03-08T01:18:04;18.65;;;15.15;;
75506;SDS011;64086;43.220;27.878;2023-03-08T01:20:30;20.30;;;16.10;;
75506;SDS011;64086;43.220;27.878;2023-03-08T01:22:55;22.35;;;15.45;;
75506;SDS011;64086;43.220;27.878;2023-03-08T01:25:21;38.13;;;28.60;;
75506;SDS011;64086;43.220;27.878;2023-03-08T01:27:46;29.70;;;23.23;;
75506;SDS011;64086;43.220;27.878;2023-03-08T01:30:11;35.10;;;26.70;;
75506;SDS011;64086;43.220;27.878;2023-03-08T01:32:37;54.75;;;41.40;;
75506;SDS011;64086;43.220;27.878;2023-03-08T01:35:03;44.25;;;34.95;;
75506;SDS011;64086;43.220;27.878;2023-03-08T01:37:30;33.42;;;26.75;;
75506;SDS011;64086;43.220;27.878;2023-03-08T01:39:55;31.83;;;24.63;;
75506;SDS011;64086;43.220;27.878;2023-03-08T01:42:21;42.03;;;30.98;;
75506;SDS011;64086;43.220;27.878;2023-03-08T01:47:19;37.17;;;30.38;;
75506;SDS011;64086;43.220;27.878;2023-03-08T01:49:46;42.92;;;31.95;;
75506;SDS011;64086;43.220;27.878;2023-03-08T01:52:13;52.25;;;42.13;;
75506;SDS011;64086;43.220;27.878;2023-03-08T01:54:47;50.88;;;38.38;;
75506;SDS011;64086;43.220;27.878;2023-03-08T01:57:18;32.80;;;25.70;;
75506;SDS011;64086;43.220;27.878;2023-03-08T01:59:48;32.30;;;24.23;;
75506;SDS011;64086;43.220;27.878;2023-03-08T02:02:16;31.95;;;22.30;;
75506;SDS011;64086;43.220;27.878;2023-03-08T02:04:43;27.70;;;21.05;;
75506;SDS011;64086;43.220;27.878;2023-03-08T02:07:08;46.15;;;36.05;;
75506;SDS011;64086;43.220;27.878;2023-03-08T02:09:34;44.03;;;32.05;;
75506;SDS011;64086;43.220;27.878;2023-03-08T02:12:00;38.70;;;27.23;;
75506;SDS011;64086;43.220;27.878;2023-03-08T02:14:27;31.20;;;22.58;;
75506;SDS011;64086;43.220;27.878;2023-03-08T02:16:53;33.22;;;26.88;;
75506;SDS011;64086;43.220;27.878;2023-03-08T02:20:04;39.63;;;25.35;;
75506;SDS011;64086;43.220;27.878;2023-03-08T02:22:13;28.63;;;21.90;;
75506;SDS011;64086;43.220;27.878;2023-03-08T02:24:39;27.55;;;20.27;;
75506;SDS011;64086;43.220;27.878;2023-03-08T02:27:23;19.85;;;15.60;;
75506;SDS011;64086;43.220;27.878;2023-03-08T02:29:50;20.05;;;13.55;;
75506;SDS011;64086;43.220;27.878;2023-03-08T02:32:16;20.10;;;14.35;;
75506;SDS011;64086;43.220;27.878;2023-03-08T02:34:41;22.98;;;18.30;;
75506;SDS011;64086;43.220;27.878;2023-03-08T02:37:07;25.42;;;19.55;;
75506;SDS011;64086;43.220;27.878;2023-03-08T02:39:32;21.25;;;15.30;;
75506;SDS011;64086;43.220;27.878;2023-03-08T02:41:58;25.10;;;19.02;;
75506;SDS011;64086;43.220;27.878;2023-03-08T02:44:23;26.55;;;20.77;;
75506;SDS011;64086;43.220;27.878;2023-03-08T02:46:49;26.52;;;19.65;;
75506;SDS011;64086;43.220;27.878;2023-03-08T02:49:15;24.95;;;19.98;;
75506;SDS011;64086;43.220;27.878;2023-03-08T02:51:40;26.88;;;20.27;;
75506;SDS011;64086;43.220;27.878;2023-03-08T02:54:06;28.92;;;20.38;;
75506;SDS011;64086;43.220;27.878;2023-03-08T02:56:31;27.92;;;20.42;;
75506;SDS011;64086;43.220;27.878;2023-03-08T02:58:57;26.15;;;19.40;;
75506;SDS011;64086;43.220;27.878;2023-03-08T03:01:22;28.02;;;22.08;;
75506;SDS011;64086;43.220;27.878;2023-03-08T03:03:47;27.88;;;21.73;;
75506;SDS011;64086;43.220;27.878;2023-03-08T03:06:14;22.48;;;19.42;;
75506;SDS011;64086;43.220;27.878;2023-03-08T03:08:40;25.02;;;18.75;;
75506;SDS011;64086;43.220;27.878;2023-03-08T03:11:19;24.65;;;17.73;;
75506;SDS011;64086;43.220;27.878;2023-03-08T03:13:45;27.95;;;20.25;;
75506;SDS011;64086;43.220;27.878;2023-03-08T03:16:12;26.30;;;20.33;;
75506;SDS011;64086;43.220;27.878;2023-03-08T03:18:38;25.80;;;17.85;;
75506;SDS011;64086;43.220;27.878;2023-03-08T03:21:05;20.90;;;15.35;;
75506;SDS011;64086;43.220;27.878;2023-03-08T03:23:32;21.13;;;15.15;;
75506;SDS011;64086;43.220;27.878;2023-03-08T03:26:03;19.33;;;14.43;;
75506;SDS011;64086;43.220;27.878;2023-03-08T03:28:29;22.23;;;15.40;;
75506;SDS011;64086;43.220;27.878;2023-03-08T03:30:55;23.05;;;16.63;;
75506;SDS011;64086;43.220;27.878;2023-03-08T03:33:20;21.65;;;16.15;;
75506;SDS011;64086;43.220;27.878;2023-03-08T03:35:45;25.63;;;17.65;;
75506;SDS011;64086;43.220;27.878;2023-03-08T03:38:11;22.73;;;15.80;;
75506;SDS011;64086;43.220;27.878;2023-03-08T03:40:36;21.58;;;16.27;;
75506;SDS011;64086;43.220;27.878;2023-03-08T03:43:02;21.23;;;15.70;;
75506;SDS011;64086;43.220;27.878;2023-03-08T03:45:27;24.63;;;18.10;;
75506;SDS011;64086;43.220;27.878;2023-03-08T03:47:52;23.38;;;17.10;;
75506;SDS011;64086;43.220;27.878;2023-03-08T03:50:18;19.35;;;15.60;;
75506;SDS011;64086;43.220;27.878;2023-03-08T03:52:43;17.27;;;13.95;;
75506;SDS011;64086;43.220;27.878;2023-03-08T03:55:09;17.42;;;12.45;;
75506;SDS011;64086;43.220;27.878;2023-03-08T03:57:34;16.10;;;11.75;;
75506;SDS011;64086;43.220;27.878;2023-03-08T04:00:00;17.40;;;14.07;;
75506;SDS011;64086;43.220;27.878;2023-03-08T04:02:25;21.08;;;16.30;;
75506;SDS011;64086;43.220;27.878;2023-03-08T04:04:52;19.85;;;15.20;;
75506;SDS011;64086;43.220;27.878;2023-03-08T04:07:17;21.45;;;15.07;;
75506;SDS011;64086;43.220;27.878;2023-03-08T04:09:43;22.50;;;16.65;;
75506;SDS011;64086;43.220;27.878;2023-03-08T04:12:08;24.30;;;17.02;;
75506;SDS011;64086;43.220;27.878;2023-03-08T04:14:34;23.75;;;16.80;;
75506;SDS011;64086;43.220;27.878;2023-03-08T04:16:59;26.77;;;17.02;;
75506;SDS011;64086;43.220;27.878;2023-03-08T04:19:25;22.90;;;15.77;;
75506;SDS011;64086;43.220;27.878;2023-03-08T04:21:50;23.17;;;16.45;;
75506;SDS011;64086;43.220;27.878;2023-03-08T04:24:16;24.17;;;17.05;;
75506;SDS011;64086;43.220;27.878;2023-03-08T04:26:41;24.55;;;16.48;;
75506;SDS011;64086;43.220;27.878;2023-03-08T04:29:07;21.88;;;15.70;;
75506;SDS011;64086;43.220;27.878;2023-03-08T04:31:33;22.40;;;15.38;;
75506;SDS011;64086;43.220;27.878;2023-03-08T04:33:59;20.63;;;14.55;;
75506;SDS011;64086;43.220;27.878;2023-03-08T04:36:25;24.10;;;16.23;;
75506;SDS011;64086;43.220;27.878;2023-03-08T04:38:51;22.55;;;15.93;;
75506;SDS011;64086;43.220;27.878;2023-03-08T04:41:16;23.20;;;14.75;;
75506;SDS011;64086;43.220;27.878;2023-03-08T04:43:46;21.63;;;14.95;;
75506;SDS011;64086;43.220;27.878;2023-03-08T04:46:12;19.88;;;15.43;;
75506;SDS011;64086;43.220;27.878;2023-03-08T04:48:38;25.30;;;15.10;;
75506;SDS011;64086;43.220;27.878;2023-03-08T04:51:04;23.42;;;16.13;;
75506;SDS011;64086;43.220;27.878;2023-03-08T04:53:31;24.02;;;15.27;;
75506;SDS011;64086;43.220;27.878;2023-03-08T04:55:57;25.10;;;15.68;;
75506;SDS011;64086;43.220;27.878;2023-03-08T04:58:25;22.73;;;16.00;;
75506;SDS011;64086;43.220;27.878;2023-03-08T05:00:52;29.90;;;18.70;;
75506;SDS011;64086;43.220;27.878;2023-03-08T05:03:17;30.48;;;17.98;;
75506;SDS011;64086;43.220;27.878;2023-03-08T05:05:47;26.35;;;17.23;;
75506;SDS011;64086;43.220;27.878;2023-03-08T05:08:13;24.42;;;16.80;;
75506;SDS011;64086;43.220;27.878;2023-03-08T05:10:39;21.75;;;16.17;;
75506;SDS011;64086;43.220;27.878;2023-03-08T05:13:10;24.92;;;16.98;;
75506;SDS011;64086;43.220;27.878;2023-03-08T05:15:35;23.38;;;15.73;;
75506;SDS011;64086;43.220;27.878;2023-03-08T05:18:01;26.00;;;15.70;;
75506;SDS011;64086;43.220;27.878;2023-03-08T05:20:26;22.17;;;15.52;;
75506;SDS011;64086;43.220;27.878;2023-03-08T05:22:52;21.58;;;15.15;;
75506;SDS011;64086;43.220;27.878;2023-03-08T05:25:17;21.30;;;15.98;;
75506;SDS011;64086;43.220;27.878;2023-03-08T05:27:42;23.02;;;16.52;;
75506;SDS011;64086;43.220;27.878;2023-03-08T05:30:08;24.27;;;17.70;;
75506;SDS011;64086;43.220;27.878;2023-03-08T05:32:34;28.02;;;18.88;;
75506;SDS011;64086;43.220;27.878;2023-03-08T05:34:59;28.10;;;21.10;;
75506;SDS011;64086;43.220;27.878;2023-03-08T05:37:25;21.63;;;18.23;;
75506;SDS011;64086;43.220;27.878;2023-03-08T05:39:51;27.98;;;18.98;;
75506;SDS011;64086;43.220;27.878;2023-03-08T05:42:17;28.10;;;20.33;;
75506;SDS011;64086;43.220;27.878;2023-03-08T05:44:43;26.40;;;19.38;;
75506;SDS011;64086;43.220;27.878;2023-03-08T05:47:08;27.55;;;19.63;;
75506;SDS011;64086;43.220;27.878;2023-03-08T05:49:34;25.77;;;19.33;;
75506;SDS011;64086;43.220;27.878;2023-03-08T05:51:59;23.13;;;17.65;;
75506;SDS011;64086;43.220;27.878;2023-03-08T05:54:25;21.02;;;18.38;;
75506;SDS011;64086;43.220;27.878;2023-03-08T05:56:50;24.52;;;19.05;;
75506;SDS011;64086;43.220;27.878;2023-03-08T05:59:15;27.02;;;20.30;;
75506;SDS011;64086;43.220;27.878;2023-03-08T06:01:41;27.77;;;21.30;;
75506;SDS011;64086;43.220;27.878;2023-03-08T06:04:07;31.60;;;23.42;;
75506;SDS011;64086;43.220;27.878;2023-03-08T06:06:32;31.50;;;21.50;;
75506;SDS011;64086;43.220;27.878;2023-03-08T06:08:58;23.98;;;21.08;;
75506;SDS011;64086;43.220;27.878;2023-03-08T06:11:23;23.27;;;18.98;;
75506;SDS011;64086;43.220;27.878;2023-03-08T06:13:49;23.85;;;18.45;;
75506;SDS011;64086;43.220;27.878;2023-03-08T06:16:14;24.00;;;21.40;;
75506;SDS011;64086;43.220;27.878;2023-03-08T06:18:40;24.88;;;22.35;;
75506;SDS011;64086;43.220;27.878;2023-03-08T06:23:36;28.55;;;24.23;;
75506;SDS011;64086;43.220;27.878;2023-03-08T06:26:03;28.73;;;25.10;;
75506;SDS011;64086;43.220;27.878;2023-03-08T06:28:29;38.92;;;30.00;;
75506;SDS011;64086;43.220;27.878;2023-03-08T06:30:55;39.72;;;32.58;;
75506;SDS011;64086;43.220;27.878;2023-03-08T06:33:22;35.13;;;31.35;;
75506;SDS011;64086;43.220;27.878;2023-03-08T06:38:25;35.60;;;28.33;;
75506;SDS011;64086;43.220;27.878;2023-03-08T06:40:51;28.92;;;23.77;;
75506;SDS011;64086;43.220;27.878;2023-03-08T06:43:17;33.08;;;24.85;;
75506;SDS011;64086;43.220;27.878;2023-03-08T06:45:43;27.17;;;23.13;;
75506;SDS011;64086;43.220;27.878;2023-03-08T06:48:08;26.80;;;24.08;;
75506;SDS011;64086;43.220;27.878;2023-03-08T06:50:34;29.02;;;23.40;;
75506;SDS011;64086;43.220;27.878;2023-03-08T06:52:59;26.77;;;21.33;;
75506;SDS011;64086;43.220;27.878;2023-03-08T06:55:25;24.27;;;21.63;;
75506;SDS011;64086;43.220;27.878;2023-03-08T06:57:50;27.33;;;21.65;;
75506;SDS011;64086;43.220;27.878;2023-03-08T07:00:16;22.50;;;20.13;;
75506;SDS011;64086;43.220;27.878;2023-03-08T07:02:42;23.02;;;20.58;;
75506;SDS011;64086;43.220;27.878;2023-03-08T07:05:08;27.50;;;20.83;;
75506;SDS011;64086;43.220;27.878;2023-03-08T07:07:33;24.73;;;19.80;;
75506;SDS011;64086;43.220;27.878;2023-03-08T07:10:03;24.30;;;21.35;;
75506;SDS011;64086;43.220;27.878;2023-03-08T07:12:29;22.58;;;20.23;;
75506;SDS011;64086;43.220;27.878;2023-03-08T07:14:56;24.45;;;20.30;;
75506;SDS011;64086;43.220;27.878;2023-03-08T07:17:22;25.25;;;19.80;;
75506;SDS011;64086;43.220;27.878;2023-03-08T07:19:48;21.55;;;19.30;;
75506;SDS011;64086;43.220;27.878;2023-03-08T07:22:13;28.70;;;19.15;;
75506;SDS011;64086;43.220;27.878;2023-03-08T07:24:39;21.88;;;19.58;;
75506;SDS011;64086;43.220;27.878;2023-03-08T07:27:04;23.73;;;18.98;;
75506;SDS011;64086;43.220;27.878;2023-03-08T07:29:30;22.85;;;17.75;;
75506;SDS011;64086;43.220;27.878;2023-03-08T07:31:55;25.67;;;17.42;;
75506;SDS011;64086;43.220;27.878;2023-03-08T07:34:21;19.00;;;16.33;;
75506;SDS011;64086;43.220;27.878;2023-03-08T07:36:46;19.80;;;17.67;;
75506;SDS011;64086;43.220;27.878;2023-03-08T07:39:12;27.42;;;19.77;;
75506;SDS011;64086;43.220;27.878;2023-03-08T07:41:37;17.42;;;14.48;;
75506;SDS011;64086;43.220;27.878;2023-03-08T07:44:02;22.90;;;17.08;;
75506;SDS011;64086;43.220;27.878;2023-03-08T07:46:28;22.23;;;17.50;;
75506;SDS011;64086;43.220;27.878;2023-03-08T07:48:54;20.20;;;18.15;;
75506;SDS011;64086;43.220;27.878;2023-03-08T07:51:19;21.83;;;17.58;;
75506;SDS011;64086;43.220;27.878;2023-03-08T07:53:45;19.60;;;17.05;;
75506;SDS011;64086;43.220;27.878;2023-03-08T07:56:10;17.90;;;16.17;;
75506;SDS011;64086;43.220;27.878;2023-03-08T07:58:36;16.65;;;14.88;;
75506;SDS011;64086;43.220;27.878;2023-03-08T08:01:06;15.40;;;12.88;;
75506;SDS011;64086;43.220;27.878;2023-03-08T08:03:35;11.13;;;10.13;;
75506;SDS011;64086;43.220;27.878;2023-03-08T08:06:02;12.93;;;11.52;;
75506;SDS011;64086;43.220;27.878;2023-03-08T08:08:31;9.80;;;8.48;;
75506;SDS011;64086;43.220;27.878;2023-03-08T08:10:57;8.73;;;7.47;;
75506;SDS011;64086;43.220;27.878;2023-03-08T08:13:23;8.65;;;7.00;;
75506;SDS011;64086;43.220;27.878;2023-03-08T08:15:58;9.48;;;6.90;;
75506;SDS011;64086;43.220;27.878;2023-03-08T08:18:24;9.60;;;7.35;;
75506;SDS011;64086;43.220;27.878;2023-03-08T08:20:57;9.05;;;7.28;;
75506;SDS011;64086;43.220;27.878;2023-03-08T08:23:24;7.68;;;6.95;;
75506;SDS011;64086;43.220;27.878;2023-03-08T08:25:49;8.82;;;7.45;;
75506;SDS011;64086;43.220;27.878;2023-03-08T08:28:14;7.97;;;7.13;;
75506;SDS011;64086;43.220;27.878;2023-03-08T08:30:40;10.65;;;8.68;;
75506;SDS011;64086;43.220;27.878;2023-03-08T08:33:05;10.52;;;9.52;;
75506;SDS011;64086;43.220;27.878;2023-03-08T08:35:31;10.55;;;9.50;;
75506;SDS011;64086;43.220;27.878;2023-03-08T08:37:56;12.57;;;11.32;;
75506;SDS011;64086;43.220;27.878;2023-03-08T08:40:22;11.15;;;10.05;;
75506;SDS011;64086;43.220;27.878;2023-03-08T08:42:47;8.90;;;8.00;;
75506;SDS011;64086;43.220;27.878;2023-03-08T08:45:12;8.43;;;7.63;;
75506;SDS011;64086;43.220;27.878;2023-03-08T08:47:38;8.82;;;7.55;;
75506;SDS011;64086;43.220;27.878;2023-03-08T08:50:03;8.85;;;7.97;;
75506;SDS011;64086;43.220;27.878;2023-03-08T08:52:29;10.82;;;8.40;;
75506;SDS011;64086;43.220;27.878;2023-03-08T08:54:55;9.38;;;8.18;;
75506;SDS011;64086;43.220;27.878;2023-03-08T08:57:21;10.38;;;8.25;;
75506;SDS011;64086;43.220;27.878;2023-03-08T08:59:47;9.38;;;8.45;;
75506;SDS011;64086;43.220;27.878;2023-03-08T09:02:12;14.95;;;8.50;;
75506;SDS011;64086;43.220;27.878;2023-03-08T09:04:38;12.23;;;8.27;;
75506;SDS011;64086;43.220;27.878;2023-03-08T09:07:04;12.45;;;8.18;;
75506;SDS011;64086;43.220;27.878;2023-03-08T09:09:31;9.07;;;8.05;;
75506;SDS011;64086;43.220;27.878;2023-03-08T09:11:56;9.57;;;7.28;;
75506;SDS011;64086;43.220;27.878;2023-03-08T09:14:22;10.00;;;7.55;;
75506;SDS011;64086;43.220;27.878;2023-03-08T09:16:48;15.40;;;7.38;;
75506;SDS011;64086;43.220;27.878;2023-03-08T09:19:13;8.18;;;6.35;;
75506;SDS011;64086;43.220;27.878;2023-03-08T09:21:39;8.40;;;6.20;;
75506;SDS011;64086;43.220;27.878;2023-03-08T09:24:04;10.32;;;7.15;;
75506;SDS011;64086;43.220;27.878;2023-03-08T09:26:31;10.10;;;7.45;;
75506;SDS011;64086;43.220;27.878;2023-03-08T09:28:57;10.65;;;7.05;;
75506;SDS011;64086;43.220;27.878;2023-03-08T09:31:28;16.80;;;7.38;;
75506;SDS011;64086;43.220;27.878;2023-03-08T09:33:54;22.58;;;9.48;;
75506;SDS011;64086;43.220;27.878;2023-03-08T09:36:20;12.90;;;8.98;;
75506;SDS011;64086;43.220;27.878;2023-03-08T09:38:48;14.18;;;8.85;;
75506;SDS011;64086;43.220;27.878;2023-03-08T09:46:26;7.00;;;4.45;;
75506;SDS011;64086;43.220;27.878;2023-03-08T09:48:54;5.97;;;4.28;;
75506;SDS011;64086;43.220;27.878;2023-03-08T09:51:24;7.78;;;4.82;;
75506;SDS011;64086;43.220;27.878;2023-03-08T09:53:54;8.63;;;6.85;;
75506;SDS011;64086;43.220;27.878;2023-03-08T09:56:28;8.20;;;5.95;;
75506;SDS011;64086;43.220;27.878;2023-03-08T09:59:18;12.32;;;6.90;;
75506;SDS011;64086;43.220;27.878;2023-03-08T10:10:29;13.15;;;7.75;;
75506;SDS011;64086;43.220;27.878;2023-03-08T10:15:45;6.57;;;5.40;;
75506;SDS011;64086;43.220;27.878;2023-03-08T10:20:50;8.48;;;6.35;;
75506;SDS011;64086;43.220;27.878;2023-03-08T10:23:18;7.95;;;5.10;;
75506;SDS011;64086;43.220;27.878;2023-03-08T10:25:45;5.35;;;4.10;;
75506;SDS011;64086;43.220;27.878;2023-03-08T10:28:20;7.68;;;3.95;;
75506;SDS011;64086;43.220;27.878;2023-03-08T10:30:48;6.70;;;4.18;;
75506;SDS011;64086;43.220;27.878;2023-03-08T10:33:22;7.60;;;5.72;;
75506;SDS011;64086;43.220;27.878;2023-03-08T10:38:36;12.60;;;6.40;;
75506;SDS011;64086;43.220;27.878;2023-03-08T10:41:10;12.13;;;5.68;;
75506;SDS011;64086;43.220;27.878;2023-03-08T10:43:43;9.27;;;5.80;;
75506;SDS011;64086;43.220;27.878;2023-03-08T10:48:38;6.53;;;4.50;;
75506;SDS011;64086;43.220;27.878;2023-03-08T10:51:05;6.95;;;4.15;;
75506;SDS011;64086;43.220;27.878;2023-03-08T10:53:31;5.95;;;3.75;;
75506;SDS011;64086;43.220;27.878;2023-03-08T10:55:58;5.70;;;2.80;;
75506;SDS011;64086;43.220;27.878;2023-03-08T10:58:26;5.63;;;2.80;;
75506;SDS011;64086;43.220;27.878;2023-03-08T11:01:05;9.02;;;2.92;;
75506;SDS011;64086;43.220;27.878;2023-03-08T11:03:33;9.75;;;3.67;;
75506;SDS011;64086;43.220;27.878;2023-03-08T11:09:00;4.90;;;3.00;;
75506;SDS011;64086;43.220;27.878;2023-03-08T11:11:25;6.57;;;3.45;;
75506;SDS011;64086;43.220;27.878;2023-03-08T11:13:51;5.30;;;3.30;;
75506;SDS011;64086;43.220;27.878;2023-03-08T11:40:41;10.68;;;3.17;;
75506;SDS011;64086;43.220;27.878;2023-03-08T11:43:16;5.93;;;3.35;;
75506;SDS011;64086;43.220;27.878;2023-03-08T11:46:10;11.95;;;3.88;;
75506;SDS011;64086;43.220;27.878;2023-03-08T11:52:04;6.00;;;2.90;;
75506;SDS011;64086;43.220;27.878;2023-03-08T11:57:55;4.40;;;2.88;;
75506;SDS011;64086;43.220;27.878;2023-03-08T12:00:27;5.30;;;2.70;;
75506;SDS011;64086;43.220;27.878;2023-03-08T12:03:10;4.63;;;2.83;;
75506;SDS011;64086;43.220;27.878;2023-03-08T12:05:40;4.43;;;2.90;;
75506;SDS011;64086;43.220;27.878;2023-03-08T12:08:20;7.00;;;3.20;;
75506;SDS011;64086;43.220;27.878;2023-03-08T12:10:56;7.38;;;3.42;;
75506;SDS011;64086;43.220;27.878;2023-03-08T12:13:33;7.30;;;3.83;;
75506;SDS011;64086;43.220;27.878;2023-03-08T12:18:44;8.40;;;3.50;;
75506;SDS011;64086;43.220;27.878;2023-03-08T12:27:04;9.60;;;3.53;;
75506;SDS011;64086;43.220;27.878;2023-03-08T12:32:05;4.88;;;2.72;;
75506;SDS011;64086;43.220;27.878;2023-03-08T12:37:16;3.83;;;3.03;;
75506;SDS011;64086;43.220;27.878;2023-03-08T12:43:02;4.72;;;3.13;;
75506;SDS011;64086;43.220;27.878;2023-03-08T12:45:36;4.90;;;2.88;;
75506;SDS011;64086;43.220;27.878;2023-03-08T12:50:28;8.18;;;3.17;;
75506;SDS011;64086;43.220;27.878;2023-03-08T12:52:54;5.75;;;3.17;;
75506;SDS011;64086;43.220;27.878;2023-03-08T12:55:26;6.53;;;2.90;;
75506;SDS011;64086;43.220;27.878;2023-03-08T12:57:56;4.63;;;3.10;;
75506;SDS011;64086;43.220;27.878;2023-03-08T13:00:27;4.97;;;2.90;;
75506;SDS011;64086;43.220;27.878;2023-03-08T13:03:01;3.42;;;2.60;;
75506;SDS011;64086;43.220;27.878;2023-03-08T13:05:37;5.45;;;2.83;;
75506;SDS011;64086;43.220;27.878;2023-03-08T13:10:39;5.78;;;3.17;;
75506;SDS011;64086;43.220;27.878;2023-03-08T13:16:28;4.50;;;3.63;;
75506;SDS011;64086;43.220;27.878;2023-03-08T13:19:16;5.38;;;3.63;;
75506;SDS011;64086;43.220;27.878;2023-03-08T13:21:46;8.65;;;3.97;;
75506;SDS011;64086;43.220;27.878;2023-03-08T13:24:14;5.85;;;3.20;;
75506;SDS011;64086;43.220;27.878;2023-03-08T13:26:59;6.93;;;3.30;;
75506;SDS011;64086;43.220;27.878;2023-03-08T13:29:46;5.25;;;3.67;;
75506;SDS011;64086;43.220;27.878;2023-03-08T13:32:16;6.53;;;3.75;;
75506;SDS011;64086;43.220;27.878;2023-03-08T13:34:43;5.65;;;3.20;;
75506;SDS011;64086;43.220;27.878;2023-03-08T13:37:21;5.45;;;3.50;;
75506;SDS011;64086;43.220;27.878;2023-03-08T13:39:51;5.57;;;3.00;;
75506;SDS011;64086;43.220;27.878;2023-03-08T13:44:52;6.90;;;3.03;;
75506;SDS011;64086;43.220;27.878;2023-03-08T13:47:20;6.07;;;3.08;;
75506;SDS011;64086;43.220;27.878;2023-03-08T13:49:50;7.28;;;3.30;;
75506;SDS011;64086;43.220;27.878;2023-03-08T13:52:19;5.45;;;3.60;;
75506;SDS011;64086;43.220;27.878;2023-03-08T13:54:50;6.03;;;3.25;;
75506;SDS011;64086;43.220;27.878;2023-03-08T13:57:24;4.85;;;3.10;;
75506;SDS011;64086;43.220;27.878;2023-03-08T13:59:56;6.38;;;2.97;;
75506;SDS011;64086;43.220;27.878;2023-03-08T14:02:24;4.78;;;3.45;;
75506;SDS011;64086;43.220;27.878;2023-03-08T14:04:54;6.38;;;3.25;;
75506;SDS011;64086;43.220;27.878;2023-03-08T14:07:30;6.53;;;3.67;;
75506;SDS011;64086;43.220;27.878;2023-03-08T14:09:58;5.97;;;3.42;;
75506;SDS011;64086;43.220;27.878;2023-03-08T14:12:28;6.75;;;3.47;;
75506;SDS011;64086;43.220;27.878;2023-03-08T14:14:55;6.80;;;3.33;;
75506;SDS011;64086;43.220;27.878;2023-03-08T14:17:25;8.65;;;3.45;;
75506;SDS011;64086;43.220;27.878;2023-03-08T14:19:56;4.38;;;3.00;;
75506;SDS011;64086;43.220;27.878;2023-03-08T14:22:23;4.97;;;3.13;;
75506;SDS011;64086;43.220;27.878;2023-03-08T14:24:54;3.90;;;3.05;;
75506;SDS011;64086;43.220;27.878;2023-03-08T14:29:59;6.80;;;3.35;;
75506;SDS011;64086;43.220;27.878;2023-03-08T14:32:30;7.18;;;4.60;;
75506;SDS011;64086;43.220;27.878;2023-03-08T14:35:04;5.05;;;3.28;;
75506;SDS011;64086;43.220;27.878;2023-03-08T14:37:31;4.90;;;3.17;;
75506;SDS011;64086;43.220;27.878;2023-03-08T14:42:45;5.30;;;3.28;;
75506;SDS011;64086;43.220;27.878;2023-03-08T14:47:57;7.40;;;3.50;;
75506;SDS011;64086;43.220;27.878;2023-03-08T14:50:27;6.90;;;3.22;;
75506;SDS011;64086;43.220;27.878;2023-03-08T14:52:57;6.75;;;3.47;;
75506;SDS011;64086;43.220;27.878;2023-03-08T14:55:28;8.85;;;3.70;;
75506;SDS011;64086;43.220;27.878;2023-03-08T14:57:56;6.80;;;3.45;;
75506;SDS011;64086;43.220;27.878;2023-03-08T15:00:24;7.13;;;3.78;;
75506;SDS011;64086;43.220;27.878;2023-03-08T15:02:54;5.22;;;3.28;;
75506;SDS011;64086;43.220;27.878;2023-03-08T15:05:21;6.55;;;3.60;;
75506;SDS011;64086;43.220;27.878;2023-03-08T15:07:48;6.03;;;3.05;;
75506;SDS011;64086;43.220;27.878;2023-03-08T15:10:36;6.20;;;3.72;;
75506;SDS011;64086;43.220;27.878;2023-03-08T15:13:04;4.93;;;3.35;;
75506;SDS011;64086;43.220;27.878;2023-03-08T15:15:33;5.50;;;3.83;;
75506;SDS011;64086;43.220;27.878;2023-03-08T15:17:58;6.88;;;4.25;;
75506;SDS011;64086;43.220;27.878;2023-03-08T15:20:24;8.35;;;4.30;;
75506;SDS011;64086;43.220;27.878;2023-03-08T15:22:50;7.72;;;4.40;;
75506;SDS011;64086;43.220;27.878;2023-03-08T15:25:22;9.75;;;4.53;;
75506;SDS011;64086;43.220;27.878;2023-03-08T15:28:09;7.90;;;4.57;;
75506;SDS011;64086;43.220;27.878;2023-03-08T15:30:38;6.45;;;4.55;;
75506;SDS011;64086;43.220;27.878;2023-03-08T15:33:03;6.72;;;4.75;;
75506;SDS011;64086;43.220;27.878;2023-03-08T15:35:28;11.57;;;6.95;;
75506;SDS011;64086;43.220;27.878;2023-03-08T15:37:54;10.23;;;5.93;;
75506;SDS011;64086;43.220;27.878;2023-03-08T15:40:21;8.13;;;5.30;;
75506;SDS011;64086;43.220;27.878;2023-03-08T15:42:48;9.73;;;6.72;;
75506;SDS011;64086;43.220;27.878;2023-03-08T15:45:14;10.07;;;6.32;;
75506;SDS011;64086;43.220;27.878;2023-03-08T15:47:39;8.77;;;5.60;;
75506;SDS011;64086;43.220;27.878;2023-03-08T15:50:05;7.85;;;5.25;;
75506;SDS011;64086;43.220;27.878;2023-03-08T15:52:39;8.05;;;5.10;;
75506;SDS011;64086;43.220;27.878;2023-03-08T15:55:05;6.40;;;4.90;;
75506;SDS011;64086;43.220;27.878;2023-03-08T15:57:31;7.00;;;5.07;;
75506;SDS011;64086;43.220;27.878;2023-03-08T15:59:58;8.15;;;4.45;;
75506;SDS011;64086;43.220;27.878;2023-03-08T16:02:24;10.38;;;7.05;;